首页
METAR-TAF:

METAR-TAF

机场 :

奥斯滕德, 比利时

纬度: 51-12N, 经度: 002-52E, 海拔: 4米

当前天气观测

该预报发布于26分钟前的08:20 UTC
风速17节,风向南转西南
温度 7°C
湿度 76%
气压 1010 hPa
能见度10公里或以上
少量云层高于4000英尺

METAR: EBOS 170820Z 21017KT 9999 FEW040 07/03 Q1010 NOSIG

时间: 09:46 (08:46 UTC)

预报

该预报发布于3小时和36分钟前的05:10 UTC
预报有效从17日的 06点(UTC)到 18日的 12点(UTC)
风速18节,风向西南
能见度10公里或以上
少量云层高于2000英尺
几率 40% :
短暂存在
从 17日的 09点(UTC)到 17日的 22点(UTC)
风速25节,风向西南,有时为37节阵风
能見度: 4000
多云层高于1400英尺, 积雨云.
阵雨

TAF: EBOS 170510Z 1706/1812 23018KT 9999 FEW020 PROB40 TEMPO 1709/1722 23025G37KT 4000 SHRA BKN014CB

超过4000个机场的气象观测和天气预报(METAR&TAF报告)。

可查询的气象台以黄色和红色小点在地图上表示。

将鼠标移到小点上方,可查看气象台名称。

然后点击查看天气观测和预报。

如需切换地图:点击带黑十字的绿色按钮放大地图;点击带横线的绿色按钮缩小地图;或者点击绿色箭头查看邻近地区的地图。


METAR-TAF: